createdAt,value
2018-12-23T00:01:26.285Z,93827.37
2018-12-23T00:03:54.100Z,93827.25
2018-12-23T00:06:21.959Z,93821.09
2018-12-23T00:08:49.818Z,93818.70
2018-12-23T00:11:17.699Z,93816.45
2018-12-23T00:13:45.728Z,93823.65
2018-12-23T00:16:13.640Z,93825.28
2018-12-23T00:18:41.466Z,93814.63
2018-12-23T00:21:09.403Z,93823.03
2018-12-23T00:23:37.365Z,93830.21
2018-12-23T00:26:05.231Z,93832.09
2018-12-23T00:28:33.121Z,93833.42
2018-12-23T00:31:01.027Z,93839.15
2018-12-23T00:33:28.892Z,93836.36
2018-12-23T00:35:56.771Z,93834.29
2018-12-23T00:38:24.633Z,93837.48
2018-12-23T00:40:52.509Z,93827.07
2018-12-23T00:43:20.410Z,93828.73
2018-12-23T00:45:48.319Z,93845.98
2018-12-23T00:48:16.197Z,93847.44
2018-12-23T00:50:44.171Z,93857.81
2018-12-23T00:53:12.077Z,93858.01
2018-12-23T00:55:39.960Z,93853.77
2018-12-23T00:58:07.906Z,93856.91
2018-12-23T01:00:35.730Z,93844.94
2018-12-23T01:03:03.609Z,93840.97
2018-12-23T01:05:31.491Z,93830.78
2018-12-23T01:07:59.367Z,93833.16
2018-12-23T01:10:27.297Z,93851.48
2018-12-23T01:12:55.328Z,93855.52
2018-12-23T01:15:23.218Z,93857.78
2018-12-23T01:17:51.066Z,93863.06
2018-12-23T01:20:19.078Z,93852.11
2018-12-23T01:22:47.031Z,93858.09
2018-12-23T01:25:14.858Z,93859.31
2018-12-23T01:27:42.707Z,93860.08
2018-12-23T01:30:10.596Z,93852.88
2018-12-23T01:32:38.544Z,93851.09
2018-12-23T01:35:06.459Z,93842.02
2018-12-23T01:37:34.310Z,93845.41
2018-12-23T01:40:02.189Z,93852.16
2018-12-23T01:42:30.143Z,93839.31
2018-12-23T01:44:58.215Z,93840.74
2018-12-23T01:47:26.135Z,93844.58
2018-12-23T01:49:54.111Z,93843.63
2018-12-23T01:52:21.938Z,93847.63
2018-12-23T01:54:49.882Z,93848.09
2018-12-23T01:57:17.840Z,93855.09
2018-12-23T01:59:45.685Z,93860.06
2018-12-23T02:02:13.617Z,93862.20
2018-12-23T02:04:41.432Z,93854.95
2018-12-23T02:07:09.366Z,93865.20
2018-12-23T02:09:37.297Z,93863.06
2018-12-23T02:12:05.266Z,93846.30
2018-12-23T02:14:33.232Z,93846.52
2018-12-23T02:17:01.267Z,93858.91
2018-12-23T02:19:29.314Z,93856.42
2018-12-23T02:21:57.341Z,93861.91
2018-12-23T02:24:25.400Z,93862.03
2018-12-23T02:26:53.680Z,93866.66
2018-12-23T02:29:21.759Z,93875.27
2018-12-23T02:31:49.717Z,93874.26
2018-12-23T02:34:17.709Z,93855.57
2018-12-23T02:36:45.684Z,93841.42
2018-12-23T02:39:13.665Z,93842.61
2018-12-23T02:41:41.663Z,93841.16
2018-12-23T02:44:09.703Z,93854.59
2018-12-23T02:46:37.733Z,93856.72
2018-12-23T02:49:05.665Z,93852.92
2018-12-23T02:51:33.742Z,93855.95
2018-12-23T02:54:01.763Z,93859.84
2018-12-23T02:56:29.738Z,93867.27
2018-12-23T02:58:57.734Z,93870.34
2018-12-23T03:01:25.610Z,93874.28
2018-12-23T03:03:53.552Z,93886.56
2018-12-23T03:06:21.457Z,93882.88
2018-12-23T03:08:49.395Z,93888.83
2018-12-23T03:11:17.415Z,93895.22
2018-12-23T03:13:47.412Z,93901.94
2018-12-23T03:16:16.093Z,93899.75
2018-12-23T03:18:44.437Z,93895.76
2018-12-23T03:21:12.440Z,93880.07
2018-12-23T03:23:40.692Z,93872.36
2018-12-23T03:26:09.120Z,93868.28
2018-12-23T03:28:37.436Z,93864.73
2018-12-23T03:31:05.512Z,93873.36
2018-12-23T03:33:33.637Z,93870.70
2018-12-23T03:36:01.824Z,93875.95
2018-12-23T03:38:29.794Z,93881.09
2018-12-23T03:40:57.915Z,93881.09
2018-12-23T03:43:25.955Z,93856.89
2018-12-23T03:45:53.948Z,93839.81
2018-12-23T03:48:22.009Z,93838.17
2018-12-23T03:50:49.958Z,93852.14
2018-12-23T03:53:18.019Z,93862.58
2018-12-23T03:55:46.005Z,93856.53
2018-12-23T03:58:14.152Z,93871.56
2018-12-23T04:00:42.101Z,93873.59
2018-12-23T04:03:10.170Z,93877.72
2018-12-23T04:05:38.280Z,93874.57
2018-12-23T04:08:06.384Z,93862.16
2018-12-23T04:10:34.407Z,93871.86
2018-12-23T04:13:02.433Z,93902.34
2018-12-23T04:15:30.505Z,93903.42
2018-12-23T04:17:58.564Z,93907.23
2018-12-23T04:20:26.632Z,93904.16
2018-12-23T04:22:54.584Z,93893.74
2018-12-23T04:25:22.571Z,93893.55
2018-12-23T04:27:50.522Z,93899.80
2018-12-23T04:30:18.554Z,93913.05
2018-12-23T04:32:46.663Z,93917.41
2018-12-23T04:35:14.696Z,93915.47
2018-12-23T04:37:42.772Z,93910.98
2018-12-23T04:40:10.764Z,93900.31
2018-12-23T04:42:38.748Z,93895.72
2018-12-23T04:45:06.859Z,93901.36
2018-12-23T04:47:34.997Z,93906.80
2018-12-23T04:50:03.288Z,93893.78
2018-12-23T04:52:31.421Z,93883.52
2018-12-23T04:54:59.404Z,93893.58
2018-12-23T04:57:27.454Z,93900.66
2018-12-23T04:59:55.555Z,93898.62
2018-12-23T05:02:23.525Z,93897.30
2018-12-23T05:04:51.493Z,93904.55
2018-12-23T05:07:19.455Z,93900.24
2018-12-23T05:09:47.515Z,93899.63
2018-12-23T05:12:15.593Z,93911.25
2018-12-23T05:14:44.754Z,93917.63
2018-12-23T05:17:13.011Z,93916.14
2018-12-23T05:19:41.046Z,93912.10
2018-12-23T05:22:09.282Z,93920.19
2018-12-23T05:24:37.316Z,93921.92
2018-12-23T05:27:05.357Z,93926.52
2018-12-23T05:29:33.638Z,93934.69
2018-12-23T05:32:01.593Z,93936.43
2018-12-23T05:34:29.563Z,93951.50
2018-12-23T05:36:57.642Z,93940.11
2018-12-23T05:39:25.614Z,93939.65
2018-12-23T05:41:53.579Z,93938.76
2018-12-23T05:44:21.686Z,93934.06
2018-12-23T05:46:49.948Z,93929.30
2018-12-23T05:49:17.997Z,93911.84
2018-12-23T05:51:46.107Z,93910.89
2018-12-23T05:54:14.143Z,93918.67
2018-12-23T05:56:42.206Z,93926.25
2018-12-23T05:59:10.190Z,93926.28
2018-12-23T06:01:38.179Z,93925.16
2018-12-23T06:04:06.318Z,93929.91
2018-12-23T06:06:34.299Z,93930.95
2018-12-23T06:09:02.288Z,93929.06
2018-12-23T06:11:30.170Z,93919.50
2018-12-23T06:13:58.151Z,93919.03
2018-12-23T06:16:26.212Z,93913.81
2018-12-23T06:18:54.231Z,93921.42
2018-12-23T06:21:22.230Z,93932.84
2018-12-23T06:23:50.270Z,93936.02
2018-12-23T06:26:18.468Z,93949.25
2018-12-23T06:28:46.680Z,93952.49
2018-12-23T06:31:14.713Z,93955.91
2018-12-23T06:33:42.862Z,93965.95
2018-12-23T06:36:11.192Z,93974.60
2018-12-23T06:38:39.423Z,93973.13
2018-12-23T06:41:07.461Z,93970.92
2018-12-23T06:43:35.754Z,93966.20
2018-12-23T06:46:03.819Z,93960.41
2018-12-23T06:48:31.744Z,93941.90
2018-12-23T06:50:59.876Z,93936.20
2018-12-23T06:53:27.830Z,93940.03
2018-12-23T06:55:56.014Z,93944.97
2018-12-23T06:58:24.237Z,93941.89
2018-12-23T07:00:52.242Z,93961.06
2018-12-23T07:03:20.300Z,93959.59
2018-12-23T07:05:48.760Z,93957.28
2018-12-23T07:08:16.796Z,93970.17
2018-12-23T07:10:44.892Z,93978.45
2018-12-23T07:13:13.552Z,93992.55
2018-12-23T07:15:41.591Z,94000.98
2018-12-23T07:18:09.591Z,94018.47
2018-12-23T07:20:37.863Z,94018.28
2018-12-23T07:23:06.030Z,94011.61
2018-12-23T07:25:34.242Z,94016.88
2018-12-23T07:28:02.302Z,94016.39
2018-12-23T07:30:30.294Z,94039.86
2018-12-23T07:32:58.352Z,94037.14
2018-12-23T07:35:26.456Z,94036.70
2018-12-23T07:37:54.481Z,94042.36
2018-12-23T07:40:22.572Z,94043.05
2018-12-23T07:42:50.905Z,94034.25
2018-12-23T07:45:19.082Z,94034.25
2018-12-23T07:47:47.210Z,94028.40
2018-12-23T07:50:15.636Z,94031.03
2018-12-23T07:52:43.792Z,94045.98
2018-12-23T07:55:12.018Z,94038.59
2018-12-23T07:57:40.265Z,94033.35
2018-12-23T08:00:08.553Z,94055.91
2018-12-23T08:02:36.735Z,94056.58
2018-12-23T08:05:05.041Z,94061.15
2018-12-23T08:07:36.320Z,94049.42
2018-12-23T08:10:03.776Z,94065.45
2018-12-23T08:12:31.826Z,94058.75
2018-12-23T08:15:00.081Z,94041.25
2018-12-23T08:17:28.369Z,94046.50
2018-12-23T08:19:56.469Z,94061.15
2018-12-23T08:22:24.602Z,94064.55
2018-12-23T08:24:52.790Z,94046.65
2018-12-23T08:27:20.952Z,94032.63
2018-12-23T08:29:49.130Z,94031.63
2018-12-23T08:32:17.353Z,94039.83
2018-12-23T08:34:45.514Z,94049.25
2018-12-23T08:37:13.715Z,94048.73
2018-12-23T08:39:41.840Z,94047.72
2018-12-23T08:42:10.262Z,94061.09
2018-12-23T08:44:38.334Z,94071.70
2018-12-23T08:47:06.493Z,94063.19
2018-12-23T08:49:34.596Z,94056.69
2018-12-23T08:52:02.700Z,94057.86
2018-12-23T08:54:30.822Z,94058.36
2018-12-23T08:56:58.929Z,94055.41
2018-12-23T08:59:27.061Z,94056.87
2018-12-23T09:01:55.434Z,94056.08
2018-12-23T09:04:23.506Z,94048.74
2018-12-23T09:06:51.806Z,94051.47
2018-12-23T09:09:20.080Z,94049.69
2018-12-23T09:11:48.215Z,94044.47
2018-12-23T09:14:17.022Z,94046.06
2018-12-23T09:16:45.365Z,94050.64
2018-12-23T09:19:13.547Z,94046.87
2018-12-23T09:21:41.814Z,94051.92
2018-12-23T09:24:09.895Z,94041.13
2018-12-23T09:26:38.009Z,94043.37
2018-12-23T09:29:06.127Z,94038.00
2018-12-23T09:31:34.413Z,94044.23
2018-12-23T09:34:02.647Z,94044.08
2018-12-23T09:36:32.309Z,94042.64
2018-12-23T09:39:00.594Z,94035.47
2018-12-23T09:41:28.846Z,94034.69
2018-12-23T09:43:57.046Z,94030.30
2018-12-23T09:46:25.326Z,94025.19
2018-12-23T09:48:53.537Z,94023.66
2018-12-23T09:51:21.673Z,94016.28
2018-12-23T09:53:49.730Z,94016.16
2018-12-23T09:56:17.656Z,94021.11
2018-12-23T09:59:24.905Z,94016.37
2018-12-23T10:01:53.032Z,94017.18
2018-12-23T10:04:20.972Z,94017.36
2018-12-23T10:06:49.149Z,94019.12
2018-12-23T10:09:17.109Z,94016.42
2018-12-23T10:11:45.214Z,94019.38
2018-12-23T10:14:13.302Z,94018.16
2018-12-23T10:16:41.366Z,94017.85
2018-12-23T10:19:09.294Z,94012.92
2018-12-23T10:21:37.285Z,94005.29
2018-12-23T10:24:05.777Z,94010.55
2018-12-23T10:26:34.005Z,94013.34
2018-12-23T10:29:02.176Z,94002.87
2018-12-23T10:31:30.371Z,94001.36
2018-12-23T10:33:58.445Z,93993.23
2018-12-23T10:36:26.471Z,93981.75
2018-12-23T10:38:54.742Z,93988.98
2018-12-23T10:41:22.786Z,93984.30
2018-12-23T10:43:50.859Z,93986.53
2018-12-23T10:46:18.982Z,93982.31
2018-12-23T10:48:47.065Z,93986.90
2018-12-23T10:51:15.124Z,93982.98
2018-12-23T10:53:43.225Z,93980.72
2018-12-23T10:56:11.350Z,93982.58
2018-12-23T10:58:39.300Z,93979.90
2018-12-23T11:01:07.173Z,93981.53
2018-12-23T11:03:35.218Z,93984.88
2018-12-23T11:06:03.463Z,93991.43
2018-12-23T11:08:31.483Z,93994.79
2018-12-23T11:10:59.501Z,93990.44
2018-12-23T11:13:27.493Z,93986.17
2018-12-23T11:15:55.498Z,93986.92
2018-12-23T11:18:23.508Z,93984.81
2018-12-23T11:20:51.604Z,93980.75
2018-12-23T11:23:19.718Z,93987.18
2018-12-23T11:25:48.113Z,93986.17
2018-12-23T11:28:16.276Z,93983.84
2018-12-23T11:30:44.731Z,93985.41
2018-12-23T11:33:12.997Z,93985.67
2018-12-23T11:35:41.209Z,93982.28
2018-12-23T11:38:09.625Z,93990.39
2018-12-23T11:40:37.947Z,93984.97
2018-12-23T11:43:06.157Z,93997.90
2018-12-23T11:45:35.463Z,93996.16
2018-12-23T11:48:03.973Z,94004.80
2018-12-23T11:50:32.258Z,94018.80
2018-12-23T11:53:00.863Z,94024.54
2018-12-23T11:55:29.633Z,94032.02
2018-12-23T11:57:58.347Z,94029.02
2018-12-23T12:00:26.656Z,94036.80
2018-12-23T12:02:54.853Z,94025.68
2018-12-23T12:05:23.173Z,94020.64
2018-12-23T12:07:51.668Z,94014.34
2018-12-23T12:10:19.862Z,94023.11
2018-12-23T12:12:48.545Z,94015.93
2018-12-23T12:15:17.244Z,94012.06
2018-12-23T12:17:45.570Z,94017.76
2018-12-23T12:20:13.942Z,94033.09
2018-12-23T12:22:42.143Z,94023.75
2018-12-23T12:25:10.419Z,94009.29
2018-12-23T12:27:39.690Z,94018.41
2018-12-23T12:30:08.631Z,94013.88
2018-12-23T12:32:36.783Z,94017.87
2018-12-23T12:35:05.205Z,94035.32
2018-12-23T12:37:33.779Z,94033.36
2018-12-23T12:40:02.314Z,94051.30
2018-12-23T12:42:31.119Z,94046.78
2018-12-23T12:44:59.423Z,94046.23
2018-12-23T12:47:27.814Z,94061.30
2018-12-23T12:49:56.550Z,94066.85
2018-12-23T12:52:25.161Z,94064.91
2018-12-23T12:54:54.123Z,94072.16
2018-12-23T12:57:22.608Z,94079.50
2018-12-23T12:59:51.036Z,94074.34
2018-12-23T13:02:19.537Z,94074.13
2018-12-23T13:04:48.126Z,94077.56
2018-12-23T13:07:16.395Z,94090.77
2018-12-23T13:09:44.694Z,94100.59
2018-12-23T13:12:13.188Z,94107.02
2018-12-23T13:14:41.377Z,94111.67
2018-12-23T13:17:09.747Z,94114.36
2018-12-23T13:19:38.017Z,94125.28
2018-12-23T13:22:06.330Z,94123.83
2018-12-23T13:24:34.713Z,94124.50
2018-12-23T13:27:03.097Z,94132.73
2018-12-23T13:29:31.179Z,94138.17
2018-12-23T13:31:59.179Z,94128.99
2018-12-23T13:34:27.642Z,94134.89
2018-12-23T13:36:55.981Z,94139.58
2018-12-23T13:39:24.138Z,94155.84
2018-12-23T13:42:32.210Z,94155.42
2018-12-23T13:45:53.663Z,94147.95
2018-12-23T13:48:59.700Z,94142.45
2018-12-23T13:51:59.135Z,94141.91
2018-12-23T13:55:04.077Z,94145.38
2018-12-23T13:58:29.128Z,94144.50
2018-12-23T14:01:40.864Z,94143.00
2018-12-23T14:04:39.921Z,94143.44
2018-12-23T14:07:36.477Z,94156.72
2018-12-23T14:10:12.731Z,94153.52
2018-12-23T14:12:41.379Z,94159.72
2018-12-23T14:15:09.651Z,94162.00
2018-12-23T14:17:37.985Z,94168.09
2018-12-23T14:20:06.882Z,94168.23
2018-12-23T14:22:35.089Z,94166.48
2018-12-23T14:25:03.486Z,94167.95
2018-12-23T14:27:31.848Z,94168.75
2018-12-23T14:30:00.428Z,94163.53
2018-12-23T14:32:28.672Z,94155.11
2018-12-23T14:34:57.320Z,94147.70
2018-12-23T14:37:26.763Z,94140.03
2018-12-23T14:39:55.276Z,94135.02
2018-12-23T14:42:23.684Z,94122.66
2018-12-23T14:44:52.810Z,94113.52
2018-12-23T14:47:22.361Z,94111.88
2018-12-23T14:49:50.643Z,94109.34
2018-12-23T14:52:20.257Z,94104.03
2018-12-23T14:54:48.714Z,94109.03
2018-12-23T14:57:17.686Z,94120.36
2018-12-23T14:59:46.867Z,94127.62
2018-12-23T15:02:16.163Z,94135.98
2018-12-23T15:04:46.668Z,94145.56
2018-12-23T15:07:16.000Z,94137.66
2018-12-23T15:09:44.799Z,94140.66
2018-12-23T15:12:13.180Z,94142.92
2018-12-23T15:14:41.731Z,94142.48
2018-12-23T15:17:10.003Z,94141.55
2018-12-23T15:19:38.402Z,94140.74
2018-12-23T15:22:06.844Z,94143.47
2018-12-23T15:24:35.822Z,94145.50
2018-12-23T15:27:04.311Z,94145.30
2018-12-23T15:29:32.588Z,94144.64
2018-12-23T15:32:01.291Z,94135.20
2018-12-23T15:34:29.616Z,94134.23
2018-12-23T15:36:57.810Z,94129.45
2018-12-23T15:39:26.174Z,94132.48
2018-12-23T15:41:55.638Z,94133.38
2018-12-23T15:44:24.386Z,94137.95
2018-12-23T15:46:53.347Z,94144.00
2018-12-23T15:49:21.559Z,94155.68
2018-12-23T15:51:49.699Z,94147.20
2018-12-23T15:54:17.956Z,94142.84
2018-12-23T15:56:46.409Z,94149.25
2018-12-23T15:59:14.538Z,94140.67
2018-12-23T16:01:42.718Z,94142.18
2018-12-23T16:04:10.837Z,94141.73
2018-12-23T16:06:38.854Z,94132.94
2018-12-23T16:09:08.028Z,94123.75
2018-12-23T16:11:36.531Z,94126.23
2018-12-23T16:14:04.955Z,94125.61
2018-12-23T16:16:33.002Z,94123.16
2018-12-23T16:19:01.838Z,94123.77
2018-12-23T16:21:30.158Z,94131.66
2018-12-23T16:23:58.423Z,94133.59
2018-12-23T16:26:26.794Z,94133.73
2018-12-23T16:28:55.050Z,94134.85
2018-12-23T16:31:23.635Z,94132.30
2018-12-23T16:33:53.044Z,94138.36
2018-12-23T16:36:22.181Z,94134.78
2018-12-23T16:38:50.194Z,94130.88
2018-12-23T16:41:18.793Z,94122.70
2018-12-23T16:43:46.864Z,94122.41
2018-12-23T16:46:14.875Z,94129.54
2018-12-23T16:48:42.859Z,94125.69
2018-12-23T16:51:10.968Z,94119.28
2018-12-23T16:53:38.997Z,94119.21
2018-12-23T16:56:07.103Z,94118.63
2018-12-23T16:58:35.304Z,94130.52
2018-12-23T17:01:03.408Z,94134.17
2018-12-23T17:03:31.636Z,94133.03
2018-12-23T17:05:59.796Z,94136.27
2018-12-23T17:08:28.391Z,94139.66
2018-12-23T17:10:56.621Z,94145.11
2018-12-23T17:13:24.808Z,94152.22
2018-12-23T17:15:52.892Z,94150.44
2018-12-23T17:18:20.949Z,94142.52
2018-12-23T17:20:49.056Z,94143.09
2018-12-23T17:23:17.295Z,94149.26
2018-12-23T17:25:45.539Z,94148.12
2018-12-23T17:28:13.658Z,94151.80
2018-12-23T17:30:41.944Z,94153.14
2018-12-23T17:33:10.201Z,94156.72
2018-12-23T17:35:38.334Z,94159.55
2018-12-23T17:38:06.538Z,94163.70
2018-12-23T17:40:34.854Z,94161.05
2018-12-23T17:43:03.651Z,94167.50
2018-12-23T17:45:31.961Z,94165.34
2018-12-23T17:48:00.235Z,94175.64
2018-12-23T17:50:28.343Z,94181.58
2018-12-23T17:52:56.588Z,94177.20
2018-12-23T17:55:25.208Z,94170.08
2018-12-23T17:57:53.265Z,94172.76
2018-12-23T18:00:21.696Z,94169.86
2018-12-23T18:02:50.523Z,94170.80
2018-12-23T18:05:18.708Z,94163.52
2018-12-23T18:07:47.027Z,94169.97
2018-12-23T18:10:15.181Z,94167.28
2018-12-23T18:12:43.314Z,94162.33
2018-12-23T18:15:11.525Z,94165.72
2018-12-23T18:17:39.754Z,94161.44
2018-12-23T18:20:08.003Z,94159.78
2018-12-23T18:22:36.261Z,94157.55
2018-12-23T18:25:04.750Z,94155.92
2018-12-23T18:27:33.320Z,94148.86
2018-12-23T18:30:02.244Z,94153.20
2018-12-23T18:32:30.660Z,94148.88
2018-12-23T18:34:58.777Z,94141.29
2018-12-23T18:37:26.946Z,94144.83
2018-12-23T18:39:56.810Z,94145.13
2018-12-23T18:42:25.197Z,94139.86
2018-12-23T18:44:53.603Z,94131.39
2018-12-23T18:47:21.773Z,94137.13
2018-12-23T18:49:49.826Z,94133.55
2018-12-23T18:52:20.652Z,94132.60
2018-12-23T18:54:49.976Z,94130.92
2018-12-23T18:57:19.531Z,94129.91
2018-12-23T18:59:48.962Z,94128.36
2018-12-23T19:02:22.999Z,94128.01
2018-12-23T19:04:51.395Z,94139.30
2018-12-23T19:07:19.588Z,94131.81
2018-12-23T19:10:31.332Z,94127.14
2018-12-23T19:13:43.633Z,94127.48
2018-12-23T19:16:33.742Z,94121.44
2018-12-23T19:19:38.115Z,94110.28
2018-12-23T19:22:35.788Z,94098.80
2018-12-23T19:25:45.910Z,94091.65
2018-12-23T19:28:24.261Z,94084.11
2018-12-23T19:31:46.252Z,94105.89
2018-12-23T19:34:33.922Z,94105.28
2018-12-23T19:37:45.705Z,94101.08
2018-12-23T19:40:50.508Z,94101.00
2018-12-23T19:43:39.817Z,94110.38
2018-12-23T19:46:57.503Z,94098.55
2018-12-23T19:50:01.960Z,94097.70
2018-12-23T19:53:27.070Z,94097.84
2018-12-23T19:56:22.939Z,94088.53
2018-12-23T19:59:27.534Z,94082.73
2018-12-23T20:02:22.066Z,94085.37
2018-12-23T20:05:37.637Z,94087.88
2018-12-23T20:08:43.083Z,94084.46
2018-12-23T20:11:58.402Z,94086.28
2018-12-23T20:15:16.813Z,94079.53
2018-12-23T20:18:35.087Z,94090.15
2018-12-23T20:21:24.733Z,94078.55
2018-12-23T20:24:49.759Z,94081.34
2018-12-23T20:28:04.273Z,94089.73
2018-12-23T20:31:09.005Z,94091.73
2018-12-23T20:34:26.093Z,94073.16
2018-12-23T20:37:22.784Z,94071.53
2018-12-23T20:40:09.604Z,94070.73
2018-12-23T20:43:33.130Z,94076.28
2018-12-23T20:47:10.078Z,94068.62
2018-12-23T20:50:14.850Z,94073.26
2018-12-23T20:53:30.732Z,94073.70
2018-12-23T20:56:58.448Z,94069.16
2018-12-23T20:59:44.936Z,94078.54
2018-12-23T21:02:57.126Z,94085.33
2018-12-23T21:05:52.778Z,94077.98
2018-12-23T21:08:59.510Z,94082.95
2018-12-23T21:12:03.664Z,94088.57
2018-12-23T21:15:31.615Z,94078.83
2018-12-23T21:18:40.089Z,94077.56
2018-12-23T21:21:40.683Z,94073.36
2018-12-23T21:24:59.534Z,94075.52
2018-12-23T21:28:21.459Z,94072.46
2018-12-23T21:31:45.940Z,94062.97
2018-12-23T21:34:55.472Z,94071.91
2018-12-23T21:38:12.082Z,94081.30
2018-12-23T21:41:09.572Z,94079.20
2018-12-23T21:44:06.520Z,94077.00
2018-12-23T21:47:02.816Z,94083.86
2018-12-23T21:50:20.761Z,94076.30
2018-12-23T21:53:05.207Z,94077.19
2018-12-23T21:56:16.113Z,94067.34
2018-12-23T21:59:06.851Z,94064.77
2018-12-23T22:02:18.381Z,94067.34
2018-12-23T22:05:20.457Z,94062.56
2018-12-23T22:08:31.638Z,94057.12
2018-12-23T22:12:02.534Z,94054.09
2018-12-23T22:14:30.668Z,94049.63
2018-12-23T22:16:58.662Z,94054.49
2018-12-23T22:19:26.650Z,94052.48
2018-12-23T22:21:54.747Z,94046.67
2018-12-23T22:24:22.712Z,94048.55
2018-12-23T22:26:50.762Z,94041.38
2018-12-23T22:29:18.797Z,94041.13
2018-12-23T22:31:46.734Z,94039.34
2018-12-23T22:34:14.739Z,94039.16
2018-12-23T22:36:42.733Z,94031.96
2018-12-23T22:39:10.689Z,94031.27
2018-12-23T22:41:41.428Z,94031.49
2018-12-23T22:44:08.710Z,94027.45
2018-12-23T22:46:36.853Z,94018.61
2018-12-23T22:49:04.985Z,94017.84
2018-12-23T22:51:32.979Z,94013.36
2018-12-23T22:54:01.068Z,94009.16
2018-12-23T22:56:28.980Z,94005.45
2018-12-23T22:58:56.907Z,94005.55
2018-12-23T23:01:24.805Z,93998.37
2018-12-23T23:03:52.739Z,93997.08
2018-12-23T23:06:20.738Z,93996.14
2018-12-23T23:08:48.662Z,93986.42
2018-12-23T23:11:16.577Z,93988.64
2018-12-23T23:13:44.570Z,93984.43
2018-12-23T23:16:12.574Z,93979.34
2018-12-23T23:18:40.530Z,93974.48
2018-12-23T23:21:08.473Z,93976.54
2018-12-23T23:23:36.387Z,93972.71
2018-12-23T23:26:04.367Z,93968.25
2018-12-23T23:28:32.257Z,93954.14
2018-12-23T23:31:00.245Z,93951.48
2018-12-23T23:33:28.160Z,93951.64
2018-12-23T23:35:56.190Z,93963.06
2018-12-23T23:38:25.871Z,93966.72
2018-12-23T23:40:54.029Z,93971.28
2018-12-23T23:43:22.029Z,93962.92
2018-12-23T23:45:49.893Z,93953.28
2018-12-23T23:48:17.849Z,93950.50
2018-12-23T23:50:45.776Z,93954.52
2018-12-23T23:53:13.698Z,93950.06
2018-12-23T23:55:41.630Z,93945.33
2018-12-23T23:58:09.628Z,93940.42
